sensor_id;sensor_type;location;lat;lon;timestamp;P1;durP1;ratioP1;P2;durP2;ratioP2
17494;SDS011;8864;51.970;4.614;2024-03-25T00:01:04;6.80;;;1.65;;
17494;SDS011;8864;51.970;4.614;2024-03-25T00:03:29;9.02;;;2.03;;
17494;SDS011;8864;51.970;4.614;2024-03-25T00:05:56;6.57;;;1.40;;
17494;SDS011;8864;51.970;4.614;2024-03-25T00:08:22;6.45;;;1.55;;
17494;SDS011;8864;51.970;4.614;2024-03-25T00:10:51;9.18;;;1.77;;
17494;SDS011;8864;51.970;4.614;2024-03-25T00:13:17;8.90;;;1.50;;
17494;SDS011;8864;51.970;4.614;2024-03-25T00:15:45;8.68;;;1.75;;
17494;SDS011;8864;51.970;4.614;2024-03-25T00:18:11;7.20;;;1.52;;
17494;SDS011;8864;51.970;4.614;2024-03-25T00:20:38;8.80;;;2.20;;
17494;SDS011;8864;51.970;4.614;2024-03-25T00:23:04;6.57;;;1.58;;
17494;SDS011;8864;51.970;4.614;2024-03-25T00:25:32;6.53;;;1.55;;
17494;SDS011;8864;51.970;4.614;2024-03-25T00:27:59;9.50;;;2.00;;
17494;SDS011;8864;51.970;4.614;2024-03-25T00:30:26;6.78;;;1.50;;
17494;SDS011;8864;51.970;4.614;2024-03-25T00:32:52;7.30;;;1.65;;
17494;SDS011;8864;51.970;4.614;2024-03-25T00:35:19;10.18;;;1.95;;
17494;SDS011;8864;51.970;4.614;2024-03-25T00:37:45;6.78;;;1.52;;
17494;SDS011;8864;51.970;4.614;2024-03-25T00:40:11;7.60;;;1.63;;
17494;SDS011;8864;51.970;4.614;2024-03-25T00:42:37;4.95;;;1.77;;
17494;SDS011;8864;51.970;4.614;2024-03-25T00:45:06;5.75;;;1.50;;
17494;SDS011;8864;51.970;4.614;2024-03-25T00:47:32;7.80;;;1.33;;
17494;SDS011;8864;51.970;4.614;2024-03-25T00:49:59;8.52;;;1.10;;
17494;SDS011;8864;51.970;4.614;2024-03-25T00:52:25;6.95;;;1.50;;
17494;SDS011;8864;51.970;4.614;2024-03-25T00:54:52;9.80;;;1.73;;
17494;SDS011;8864;51.970;4.614;2024-03-25T00:57:18;5.35;;;1.50;;
17494;SDS011;8864;51.970;4.614;2024-03-25T00:59:45;4.68;;;1.30;;
17494;SDS011;8864;51.970;4.614;2024-03-25T01:02:12;6.88;;;1.65;;
17494;SDS011;8864;51.970;4.614;2024-03-25T01:04:39;8.40;;;1.60;;
17494;SDS011;8864;51.970;4.614;2024-03-25T01:07:05;7.10;;;1.52;;
17494;SDS011;8864;51.970;4.614;2024-03-25T01:09:32;9.75;;;1.70;;
17494;SDS011;8864;51.970;4.614;2024-03-25T01:11:58;6.47;;;1.67;;
17494;SDS011;8864;51.970;4.614;2024-03-25T01:14:25;8.07;;;1.83;;
17494;SDS011;8864;51.970;4.614;2024-03-25T01:16:51;8.80;;;1.50;;
17494;SDS011;8864;51.970;4.614;2024-03-25T01:19:20;9.65;;;1.88;;
17494;SDS011;8864;51.970;4.614;2024-03-25T01:21:46;4.53;;;1.17;;
17494;SDS011;8864;51.970;4.614;2024-03-25T01:24:14;7.30;;;1.38;;
17494;SDS011;8864;51.970;4.614;2024-03-25T01:26:40;4.97;;;1.30;;
17494;SDS011;8864;51.970;4.614;2024-03-25T01:29:07;5.35;;;1.50;;
17494;SDS011;8864;51.970;4.614;2024-03-25T01:31:33;5.18;;;1.42;;
17494;SDS011;8864;51.970;4.614;2024-03-25T01:34:00;6.70;;;1.50;;
17494;SDS011;8864;51.970;4.614;2024-03-25T01:36:27;6.95;;;1.50;;
17494;SDS011;8864;51.970;4.614;2024-03-25T01:38:54;6.47;;;1.20;;
17494;SDS011;8864;51.970;4.614;2024-03-25T01:41:21;8.75;;;1.27;;
17494;SDS011;8864;51.970;4.614;2024-03-25T01:43:49;10.57;;;1.48;;
17494;SDS011;8864;51.970;4.614;2024-03-25T01:46:15;8.07;;;1.55;;
17494;SDS011;8864;51.970;4.614;2024-03-25T01:48:43;6.47;;;1.25;;
17494;SDS011;8864;51.970;4.614;2024-03-25T01:51:10;5.22;;;1.33;;
17494;SDS011;8864;51.970;4.614;2024-03-25T01:53:40;5.78;;;1.42;;
17494;SDS011;8864;51.970;4.614;2024-03-25T01:56:07;6.22;;;1.10;;
17494;SDS011;8864;51.970;4.614;2024-03-25T01:58:36;3.42;;;1.05;;
17494;SDS011;8864;51.970;4.614;2024-03-25T02:01:02;4.43;;;1.17;;
17494;SDS011;8864;51.970;4.614;2024-03-25T02:03:30;6.90;;;1.42;;
17494;SDS011;8864;51.970;4.614;2024-03-25T02:05:57;3.03;;;1.20;;
17494;SDS011;8864;51.970;4.614;2024-03-25T02:08:27;4.50;;;1.25;;
17494;SDS011;8864;51.970;4.614;2024-03-25T02:10:55;8.32;;;1.20;;
17494;SDS011;8864;51.970;4.614;2024-03-25T02:13:22;4.18;;;1.10;;
17494;SDS011;8864;51.970;4.614;2024-03-25T02:15:48;4.97;;;1.20;;
17494;SDS011;8864;51.970;4.614;2024-03-25T02:18:16;4.72;;;1.02;;
17494;SDS011;8864;51.970;4.614;2024-03-25T02:20:42;3.70;;;1.10;;
17494;SDS011;8864;51.970;4.614;2024-03-25T02:23:09;5.30;;;1.40;;
17494;SDS011;8864;51.970;4.614;2024-03-25T02:25:36;3.33;;;0.90;;
17494;SDS011;8864;51.970;4.614;2024-03-25T02:28:06;5.68;;;1.40;;
17494;SDS011;8864;51.970;4.614;2024-03-25T02:30:32;3.28;;;0.95;;
17494;SDS011;8864;51.970;4.614;2024-03-25T02:32:59;2.45;;;0.90;;
17494;SDS011;8864;51.970;4.614;2024-03-25T02:35:25;4.57;;;1.20;;
17494;SDS011;8864;51.970;4.614;2024-03-25T02:37:53;3.42;;;0.95;;
17494;SDS011;8864;51.970;4.614;2024-03-25T02:40:20;3.78;;;0.90;;
17494;SDS011;8864;51.970;4.614;2024-03-25T02:42:48;5.75;;;1.17;;
17494;SDS011;8864;51.970;4.614;2024-03-25T02:45:15;6.45;;;1.15;;
17494;SDS011;8864;51.970;4.614;2024-03-25T02:47:42;3.15;;;0.90;;
17494;SDS011;8864;51.970;4.614;2024-03-25T02:50:09;5.40;;;1.15;;
17494;SDS011;8864;51.970;4.614;2024-03-25T02:52:36;4.90;;;1.35;;
17494;SDS011;8864;51.970;4.614;2024-03-25T02:55:03;5.78;;;0.98;;
17494;SDS011;8864;51.970;4.614;2024-03-25T02:57:29;4.68;;;0.90;;
17494;SDS011;8864;51.970;4.614;2024-03-25T02:59:56;3.60;;;1.08;;
17494;SDS011;8864;51.970;4.614;2024-03-25T03:02:24;5.40;;;1.40;;
17494;SDS011;8864;51.970;4.614;2024-03-25T03:04:50;4.82;;;0.88;;
17494;SDS011;8864;51.970;4.614;2024-03-25T03:07:16;5.40;;;1.25;;
17494;SDS011;8864;51.970;4.614;2024-03-25T03:09:43;3.47;;;1.02;;
17494;SDS011;8864;51.970;4.614;2024-03-25T03:12:09;2.92;;;1.13;;
17494;SDS011;8864;51.970;4.614;2024-03-25T03:14:36;3.88;;;1.00;;
17494;SDS011;8864;51.970;4.614;2024-03-25T03:17:02;4.60;;;0.77;;
17494;SDS011;8864;51.970;4.614;2024-03-25T03:19:31;3.15;;;0.80;;
17494;SDS011;8864;51.970;4.614;2024-03-25T03:21:57;2.75;;;0.77;;
17494;SDS011;8864;51.970;4.614;2024-03-25T03:24:24;3.85;;;0.98;;
17494;SDS011;8864;51.970;4.614;2024-03-25T03:26:50;6.88;;;1.13;;
17494;SDS011;8864;51.970;4.614;2024-03-25T03:29:17;3.40;;;0.80;;
17494;SDS011;8864;51.970;4.614;2024-03-25T03:31:43;5.43;;;1.00;;
17494;SDS011;8864;51.970;4.614;2024-03-25T03:34:10;2.33;;;0.98;;
17494;SDS011;8864;51.970;4.614;2024-03-25T03:36:37;6.22;;;1.00;;
17494;SDS011;8864;51.970;4.614;2024-03-25T03:39:05;5.45;;;1.00;;
17494;SDS011;8864;51.970;4.614;2024-03-25T03:41:33;2.17;;;0.75;;
17494;SDS011;8864;51.970;4.614;2024-03-25T03:44:00;2.80;;;0.63;;
17494;SDS011;8864;51.970;4.614;2024-03-25T03:46:26;2.40;;;0.90;;
17494;SDS011;8864;51.970;4.614;2024-03-25T03:48:53;5.07;;;0.80;;
17494;SDS011;8864;51.970;4.614;2024-03-25T03:51:19;4.13;;;1.10;;
17494;SDS011;8864;51.970;4.614;2024-03-25T03:53:47;3.17;;;0.93;;
17494;SDS011;8864;51.970;4.614;2024-03-25T03:56:13;2.67;;;0.80;;
17494;SDS011;8864;51.970;4.614;2024-03-25T03:58:41;4.22;;;0.90;;
17494;SDS011;8864;51.970;4.614;2024-03-25T04:01:13;2.20;;;0.85;;
17494;SDS011;8864;51.970;4.614;2024-03-25T04:03:41;1.17;;;0.65;;
17494;SDS011;8864;51.970;4.614;2024-03-25T04:06:08;3.28;;;0.70;;
17494;SDS011;8864;51.970;4.614;2024-03-25T04:08:36;3.22;;;0.90;;
17494;SDS011;8864;51.970;4.614;2024-03-25T04:11:04;3.92;;;0.82;;
17494;SDS011;8864;51.970;4.614;2024-03-25T04:13:32;3.85;;;1.10;;
17494;SDS011;8864;51.970;4.614;2024-03-25T04:16:00;2.75;;;0.77;;
17494;SDS011;8864;51.970;4.614;2024-03-25T04:18:29;5.18;;;1.08;;
17494;SDS011;8864;51.970;4.614;2024-03-25T04:20:56;3.40;;;0.77;;
17494;SDS011;8864;51.970;4.614;2024-03-25T04:23:23;2.50;;;0.80;;
17494;SDS011;8864;51.970;4.614;2024-03-25T04:25:49;1.85;;;0.77;;
17494;SDS011;8864;51.970;4.614;2024-03-25T04:28:18;2.25;;;0.70;;
17494;SDS011;8864;51.970;4.614;2024-03-25T04:30:50;4.05;;;0.93;;
17494;SDS011;8864;51.970;4.614;2024-03-25T04:33:18;3.75;;;0.88;;
17494;SDS011;8864;51.970;4.614;2024-03-25T04:35:44;2.50;;;0.65;;
17494;SDS011;8864;51.970;4.614;2024-03-25T04:38:11;4.10;;;0.80;;
17494;SDS011;8864;51.970;4.614;2024-03-25T04:40:38;1.67;;;0.80;;
17494;SDS011;8864;51.970;4.614;2024-03-25T04:43:04;1.98;;;0.55;;
17494;SDS011;8864;51.970;4.614;2024-03-25T04:45:31;2.60;;;0.80;;
17494;SDS011;8864;51.970;4.614;2024-03-25T04:47:57;3.72;;;0.60;;
17494;SDS011;8864;51.970;4.614;2024-03-25T04:50:23;3.05;;;0.98;;
17494;SDS011;8864;51.970;4.614;2024-03-25T04:52:49;2.15;;;0.80;;
17494;SDS011;8864;51.970;4.614;2024-03-25T04:55:15;2.75;;;0.73;;
17494;SDS011;8864;51.970;4.614;2024-03-25T04:57:41;2.47;;;1.00;;
17494;SDS011;8864;51.970;4.614;2024-03-25T05:00:07;1.95;;;0.60;;
17494;SDS011;8864;51.970;4.614;2024-03-25T05:02:37;2.33;;;0.65;;
17494;SDS011;8864;51.970;4.614;2024-03-25T05:05:03;2.65;;;0.70;;
17494;SDS011;8864;51.970;4.614;2024-03-25T05:07:29;4.10;;;0.93;;
17494;SDS011;8864;51.970;4.614;2024-03-25T05:09:55;3.08;;;0.75;;
17494;SDS011;8864;51.970;4.614;2024-03-25T05:12:21;2.50;;;0.90;;
17494;SDS011;8864;51.970;4.614;2024-03-25T05:14:47;6.32;;;1.02;;
17494;SDS011;8864;51.970;4.614;2024-03-25T05:17:13;3.22;;;0.60;;
17494;SDS011;8864;51.970;4.614;2024-03-25T05:19:40;4.82;;;1.23;;
17494;SDS011;8864;51.970;4.614;2024-03-25T05:22:06;3.65;;;0.88;;
17494;SDS011;8864;51.970;4.614;2024-03-25T05:24:32;2.72;;;0.98;;
17494;SDS011;8864;51.970;4.614;2024-03-25T05:26:58;4.53;;;0.80;;
17494;SDS011;8864;51.970;4.614;2024-03-25T05:29:24;3.05;;;0.90;;
17494;SDS011;8864;51.970;4.614;2024-03-25T05:31:56;2.10;;;0.57;;
17494;SDS011;8864;51.970;4.614;2024-03-25T05:34:23;3.10;;;0.85;;
17494;SDS011;8864;51.970;4.614;2024-03-25T05:36:51;5.00;;;0.70;;
17494;SDS011;8864;51.970;4.614;2024-03-25T05:39:17;2.17;;;0.80;;
17494;SDS011;8864;51.970;4.614;2024-03-25T05:41:43;3.28;;;0.90;;
17494;SDS011;8864;51.970;4.614;2024-03-25T05:44:09;2.67;;;0.85;;
17494;SDS011;8864;51.970;4.614;2024-03-25T05:46:35;2.10;;;0.90;;
17494;SDS011;8864;51.970;4.614;2024-03-25T05:49:01;2.25;;;0.80;;
17494;SDS011;8864;51.970;4.614;2024-03-25T05:51:28;1.75;;;0.70;;
17494;SDS011;8864;51.970;4.614;2024-03-25T05:53:56;4.40;;;1.05;;
17494;SDS011;8864;51.970;4.614;2024-03-25T05:56:22;2.15;;;0.80;;
17494;SDS011;8864;51.970;4.614;2024-03-25T05:58:48;1.65;;;0.60;;
17494;SDS011;8864;51.970;4.614;2024-03-25T06:01:14;4.28;;;0.82;;
17494;SDS011;8864;51.970;4.614;2024-03-25T06:03:40;2.55;;;0.95;;
17494;SDS011;8864;51.970;4.614;2024-03-25T06:06:06;5.10;;;0.90;;
17494;SDS011;8864;51.970;4.614;2024-03-25T06:08:31;2.20;;;0.75;;
17494;SDS011;8864;51.970;4.614;2024-03-25T06:11:01;1.77;;;0.80;;
17494;SDS011;8864;51.970;4.614;2024-03-25T06:13:28;4.25;;;1.00;;
17494;SDS011;8864;51.970;4.614;2024-03-25T06:15:53;2.60;;;0.70;;
17494;SDS011;8864;51.970;4.614;2024-03-25T06:18:19;4.82;;;1.63;;
17494;SDS011;8864;51.970;4.614;2024-03-25T06:20:45;3.55;;;1.00;;
17494;SDS011;8864;51.970;4.614;2024-03-25T06:23:20;4.70;;;1.10;;
17494;SDS011;8864;51.970;4.614;2024-03-25T06:25:47;2.28;;;1.17;;
17494;SDS011;8864;51.970;4.614;2024-03-25T06:28:15;2.45;;;1.13;;
17494;SDS011;8864;51.970;4.614;2024-03-25T06:30:41;4.13;;;1.00;;
17494;SDS011;8864;51.970;4.614;2024-03-25T06:33:26;5.35;;;1.30;;
17494;SDS011;8864;51.970;4.614;2024-03-25T06:36:10;6.55;;;1.20;;
17494;SDS011;8864;51.970;4.614;2024-03-25T06:38:36;7.53;;;1.30;;
17494;SDS011;8864;51.970;4.614;2024-03-25T06:41:02;5.50;;;1.60;;
17494;SDS011;8864;51.970;4.614;2024-03-25T06:43:30;3.33;;;1.05;;
17494;SDS011;8864;51.970;4.614;2024-03-25T06:45:56;5.38;;;1.48;;
17494;SDS011;8864;51.970;4.614;2024-03-25T06:48:22;3.22;;;1.08;;
17494;SDS011;8864;51.970;4.614;2024-03-25T06:50:54;9.73;;;1.70;;
17494;SDS011;8864;51.970;4.614;2024-03-25T06:53:20;4.57;;;1.25;;
17494;SDS011;8864;51.970;4.614;2024-03-25T06:55:53;10.07;;;1.45;;
17494;SDS011;8864;51.970;4.614;2024-03-25T06:58:20;4.82;;;1.38;;
17494;SDS011;8864;51.970;4.614;2024-03-25T07:00:48;5.47;;;1.40;;
17494;SDS011;8864;51.970;4.614;2024-03-25T07:03:14;7.40;;;1.50;;
17494;SDS011;8864;51.970;4.614;2024-03-25T07:05:41;5.78;;;1.23;;
17494;SDS011;8864;51.970;4.614;2024-03-25T07:08:07;6.35;;;2.00;;
17494;SDS011;8864;51.970;4.614;2024-03-25T07:10:32;11.73;;;2.28;;
17494;SDS011;8864;51.970;4.614;2024-03-25T07:12:58;8.88;;;1.85;;
17494;SDS011;8864;51.970;4.614;2024-03-25T07:15:24;3.03;;;1.30;;
17494;SDS011;8864;51.970;4.614;2024-03-25T07:17:52;5.38;;;1.50;;
17494;SDS011;8864;51.970;4.614;2024-03-25T07:20:18;21.40;;;3.13;;
17494;SDS011;8864;51.970;4.614;2024-03-25T07:22:44;77.90;;;13.30;;
17494;SDS011;8864;51.970;4.614;2024-03-25T07:25:10;56.97;;;8.82;;
17494;SDS011;8864;51.970;4.614;2024-03-25T07:27:36;40.80;;;8.15;;
17494;SDS011;8864;51.970;4.614;2024-03-25T07:30:02;137.55;;;20.95;;
17494;SDS011;8864;51.970;4.614;2024-03-25T07:32:29;72.35;;;11.80;;
17494;SDS011;8864;51.970;4.614;2024-03-25T07:34:56;84.25;;;13.88;;
17494;SDS011;8864;51.970;4.614;2024-03-25T07:37:22;87.22;;;14.60;;
17494;SDS011;8864;51.970;4.614;2024-03-25T07:39:48;70.97;;;11.55;;
17494;SDS011;8864;51.970;4.614;2024-03-25T07:42:14;63.28;;;11.00;;
17494;SDS011;8864;51.970;4.614;2024-03-25T07:44:40;68.93;;;11.23;;
17494;SDS011;8864;51.970;4.614;2024-03-25T07:47:06;50.45;;;9.27;;
17494;SDS011;8864;51.970;4.614;2024-03-25T07:49:31;56.40;;;8.93;;
17494;SDS011;8864;51.970;4.614;2024-03-25T07:52:00;49.20;;;8.75;;
17494;SDS011;8864;51.970;4.614;2024-03-25T07:54:26;43.47;;;8.23;;
17494;SDS011;8864;51.970;4.614;2024-03-25T07:56:52;49.55;;;8.25;;
17494;SDS011;8864;51.970;4.614;2024-03-25T07:59:18;38.90;;;7.72;;
17494;SDS011;8864;51.970;4.614;2024-03-25T08:01:44;39.10;;;6.38;;
17494;SDS011;8864;51.970;4.614;2024-03-25T08:04:10;32.28;;;6.30;;
17494;SDS011;8864;51.970;4.614;2024-03-25T08:06:36;35.83;;;6.20;;
17494;SDS011;8864;51.970;4.614;2024-03-25T08:09:03;33.17;;;6.50;;
17494;SDS011;8864;51.970;4.614;2024-03-25T08:11:30;23.38;;;5.35;;
17494;SDS011;8864;51.970;4.614;2024-03-25T08:13:56;24.88;;;5.05;;
17494;SDS011;8864;51.970;4.614;2024-03-25T08:16:22;27.63;;;5.63;;
17494;SDS011;8864;51.970;4.614;2024-03-25T08:18:48;23.00;;;4.93;;
17494;SDS011;8864;51.970;4.614;2024-03-25T08:21:14;18.30;;;4.30;;
17494;SDS011;8864;51.970;4.614;2024-03-25T08:23:40;23.55;;;4.95;;
17494;SDS011;8864;51.970;4.614;2024-03-25T08:26:08;20.33;;;3.80;;
17494;SDS011;8864;51.970;4.614;2024-03-25T08:28:34;16.17;;;4.13;;
17494;SDS011;8864;51.970;4.614;2024-03-25T08:31:00;11.50;;;3.60;;
17494;SDS011;8864;51.970;4.614;2024-03-25T08:33:25;13.93;;;3.50;;
17494;SDS011;8864;51.970;4.614;2024-03-25T08:35:51;15.35;;;3.83;;
17494;SDS011;8864;51.970;4.614;2024-03-25T08:38:18;15.13;;;3.30;;
17494;SDS011;8864;51.970;4.614;2024-03-25T08:40:43;14.38;;;3.60;;
17494;SDS011;8864;51.970;4.614;2024-03-25T08:43:11;17.02;;;3.58;;
17494;SDS011;8864;51.970;4.614;2024-03-25T08:45:37;24.13;;;3.70;;
17494;SDS011;8864;51.970;4.614;2024-03-25T08:48:03;15.43;;;3.03;;
17494;SDS011;8864;51.970;4.614;2024-03-25T08:50:29;23.77;;;3.75;;
17494;SDS011;8864;51.970;4.614;2024-03-25T08:52:55;14.52;;;2.95;;
17494;SDS011;8864;51.970;4.614;2024-03-25T08:55:21;14.40;;;3.15;;
17494;SDS011;8864;51.970;4.614;2024-03-25T08:57:47;13.73;;;3.42;;
17494;SDS011;8864;51.970;4.614;2024-03-25T09:00:15;13.48;;;3.13;;
17494;SDS011;8864;51.970;4.614;2024-03-25T09:02:42;11.75;;;3.03;;
17494;SDS011;8864;51.970;4.614;2024-03-25T09:05:08;12.68;;;3.90;;
17494;SDS011;8864;51.970;4.614;2024-03-25T09:07:34;12.65;;;3.00;;
17494;SDS011;8864;51.970;4.614;2024-03-25T09:10:01;10.30;;;2.70;;
17494;SDS011;8864;51.970;4.614;2024-03-25T09:12:46;11.35;;;2.85;;
17494;SDS011;8864;51.970;4.614;2024-03-25T09:15:11;11.05;;;2.70;;
17494;SDS011;8864;51.970;4.614;2024-03-25T09:17:39;17.40;;;2.97;;
17494;SDS011;8864;51.970;4.614;2024-03-25T09:20:05;11.13;;;2.95;;
17494;SDS011;8864;51.970;4.614;2024-03-25T09:22:32;11.68;;;3.00;;
17494;SDS011;8864;51.970;4.614;2024-03-25T09:24:58;10.32;;;3.10;;
17494;SDS011;8864;51.970;4.614;2024-03-25T09:27:24;9.85;;;2.75;;
17494;SDS011;8864;51.970;4.614;2024-03-25T09:29:50;10.32;;;2.50;;
17494;SDS011;8864;51.970;4.614;2024-03-25T09:32:16;10.63;;;2.85;;
17494;SDS011;8864;51.970;4.614;2024-03-25T09:34:44;14.27;;;3.55;;
17494;SDS011;8864;51.970;4.614;2024-03-25T09:37:10;9.63;;;2.35;;
17494;SDS011;8864;51.970;4.614;2024-03-25T09:39:36;12.80;;;2.53;;
17494;SDS011;8864;51.970;4.614;2024-03-25T09:42:02;12.15;;;3.00;;
17494;SDS011;8864;51.970;4.614;2024-03-25T09:44:32;10.15;;;2.42;;
17494;SDS011;8864;51.970;4.614;2024-03-25T09:46:58;11.23;;;3.17;;
17494;SDS011;8864;51.970;4.614;2024-03-25T09:49:26;8.73;;;2.50;;
17494;SDS011;8864;51.970;4.614;2024-03-25T09:51:55;9.77;;;2.83;;
17494;SDS011;8864;51.970;4.614;2024-03-25T09:54:21;14.90;;;3.00;;
17494;SDS011;8864;51.970;4.614;2024-03-25T09:56:47;13.93;;;2.75;;
17494;SDS011;8864;51.970;4.614;2024-03-25T09:59:15;12.43;;;3.25;;
17494;SDS011;8864;51.970;4.614;2024-03-25T10:01:42;24.33;;;4.15;;
17494;SDS011;8864;51.970;4.614;2024-03-25T10:04:08;20.55;;;4.93;;
17494;SDS011;8864;51.970;4.614;2024-03-25T10:06:34;19.17;;;4.30;;
17494;SDS011;8864;51.970;4.614;2024-03-25T10:09:03;41.05;;;6.03;;
17494;SDS011;8864;51.970;4.614;2024-03-25T10:11:30;20.35;;;4.80;;
17494;SDS011;8864;51.970;4.614;2024-03-25T10:13:57;36.60;;;6.07;;
17494;SDS011;8864;51.970;4.614;2024-03-25T10:16:23;25.00;;;6.75;;
17494;SDS011;8864;51.970;4.614;2024-03-25T10:18:49;17.90;;;5.80;;
17494;SDS011;8864;51.970;4.614;2024-03-25T10:21:15;20.05;;;6.07;;
17494;SDS011;8864;51.970;4.614;2024-03-25T10:23:45;21.55;;;5.78;;
17494;SDS011;8864;51.970;4.614;2024-03-25T10:26:23;19.48;;;6.88;;
17494;SDS011;8864;51.970;4.614;2024-03-25T10:28:57;14.75;;;5.72;;
17494;SDS011;8864;51.970;4.614;2024-03-25T10:31:28;18.83;;;6.13;;
17494;SDS011;8864;51.970;4.614;2024-03-25T10:33:54;18.55;;;5.63;;
17494;SDS011;8864;51.970;4.614;2024-03-25T10:36:20;17.42;;;6.47;;
17494;SDS011;8864;51.970;4.614;2024-03-25T10:38:48;18.58;;;6.10;;
17494;SDS011;8864;51.970;4.614;2024-03-25T10:41:19;22.92;;;6.10;;
17494;SDS011;8864;51.970;4.614;2024-03-25T10:43:47;26.65;;;6.43;;
17494;SDS011;8864;51.970;4.614;2024-03-25T10:46:16;23.13;;;6.25;;
17494;SDS011;8864;51.970;4.614;2024-03-25T10:48:47;18.92;;;6.60;;
17494;SDS011;8864;51.970;4.614;2024-03-25T10:51:19;16.75;;;5.85;;
17494;SDS011;8864;51.970;4.614;2024-03-25T10:53:48;17.35;;;6.88;;
17494;SDS011;8864;51.970;4.614;2024-03-25T10:56:19;17.10;;;6.70;;
17494;SDS011;8864;51.970;4.614;2024-03-25T10:58:47;15.15;;;6.60;;
17494;SDS011;8864;51.970;4.614;2024-03-25T11:01:14;14.48;;;5.82;;
17494;SDS011;8864;51.970;4.614;2024-03-25T11:03:42;15.15;;;7.05;;
17494;SDS011;8864;51.970;4.614;2024-03-25T11:06:09;16.50;;;6.60;;
17494;SDS011;8864;51.970;4.614;2024-03-25T11:08:36;14.43;;;6.35;;
17494;SDS011;8864;51.970;4.614;2024-03-25T11:11:02;15.20;;;6.32;;
17494;SDS011;8864;51.970;4.614;2024-03-25T11:13:29;14.48;;;6.75;;
17494;SDS011;8864;51.970;4.614;2024-03-25T11:15:57;14.75;;;6.72;;
17494;SDS011;8864;51.970;4.614;2024-03-25T11:18:24;17.65;;;7.22;;
17494;SDS011;8864;51.970;4.614;2024-03-25T11:21:00;18.70;;;7.28;;
17494;SDS011;8864;51.970;4.614;2024-03-25T11:23:34;15.57;;;7.13;;
17494;SDS011;8864;51.970;4.614;2024-03-25T11:26:01;15.35;;;7.43;;
17494;SDS011;8864;51.970;4.614;2024-03-25T11:28:27;16.25;;;6.97;;
17494;SDS011;8864;51.970;4.614;2024-03-25T11:30:55;14.73;;;6.70;;
17494;SDS011;8864;51.970;4.614;2024-03-25T11:33:21;14.95;;;6.30;;
17494;SDS011;8864;51.970;4.614;2024-03-25T11:35:48;14.95;;;6.45;;
17494;SDS011;8864;51.970;4.614;2024-03-25T11:38:14;15.13;;;6.18;;
17494;SDS011;8864;51.970;4.614;2024-03-25T11:40:41;13.93;;;6.22;;
17494;SDS011;8864;51.970;4.614;2024-03-25T11:43:10;15.38;;;6.03;;
17494;SDS011;8864;51.970;4.614;2024-03-25T11:45:46;17.27;;;6.43;;
17494;SDS011;8864;51.970;4.614;2024-03-25T11:48:13;14.25;;;6.05;;
17494;SDS011;8864;51.970;4.614;2024-03-25T11:50:39;10.23;;;5.10;;
17494;SDS011;8864;51.970;4.614;2024-03-25T11:53:05;10.55;;;5.03;;
17494;SDS011;8864;51.970;4.614;2024-03-25T11:55:32;12.57;;;5.68;;
17494;SDS011;8864;51.970;4.614;2024-03-25T11:57:58;14.15;;;5.20;;
17494;SDS011;8864;51.970;4.614;2024-03-25T12:00:24;12.07;;;4.80;;
17494;SDS011;8864;51.970;4.614;2024-03-25T12:02:52;13.27;;;4.82;;
17494;SDS011;8864;51.970;4.614;2024-03-25T12:05:18;19.02;;;5.10;;
17494;SDS011;8864;51.970;4.614;2024-03-25T12:07:44;15.25;;;4.30;;
17494;SDS011;8864;51.970;4.614;2024-03-25T12:10:10;10.32;;;4.50;;
17494;SDS011;8864;51.970;4.614;2024-03-25T12:12:55;13.65;;;4.63;;
17494;SDS011;8864;51.970;4.614;2024-03-25T12:15:21;8.38;;;4.10;;
17494;SDS011;8864;51.970;4.614;2024-03-25T12:17:47;7.38;;;3.88;;
17494;SDS011;8864;51.970;4.614;2024-03-25T12:20:15;9.02;;;3.80;;
17494;SDS011;8864;51.970;4.614;2024-03-25T12:22:41;9.07;;;3.72;;
17494;SDS011;8864;51.970;4.614;2024-03-25T12:25:08;9.60;;;3.90;;
17494;SDS011;8864;51.970;4.614;2024-03-25T12:27:35;10.10;;;3.55;;
17494;SDS011;8864;51.970;4.614;2024-03-25T12:30:03;11.20;;;3.20;;
17494;SDS011;8864;51.970;4.614;2024-03-25T12:32:31;9.10;;;3.90;;
17494;SDS011;8864;51.970;4.614;2024-03-25T12:35:01;7.70;;;3.60;;
17494;SDS011;8864;51.970;4.614;2024-03-25T12:37:28;7.60;;;3.55;;
17494;SDS011;8864;51.970;4.614;2024-03-25T12:39:57;8.38;;;3.33;;
17494;SDS011;8864;51.970;4.614;2024-03-25T12:42:23;8.43;;;3.28;;
17494;SDS011;8864;51.970;4.614;2024-03-25T12:44:49;8.13;;;3.20;;
17494;SDS011;8864;51.970;4.614;2024-03-25T12:47:15;8.70;;;3.40;;
17494;SDS011;8864;51.970;4.614;2024-03-25T12:49:41;6.75;;;3.22;;
17494;SDS011;8864;51.970;4.614;2024-03-25T12:52:07;6.22;;;3.28;;
17494;SDS011;8864;51.970;4.614;2024-03-25T12:54:35;6.10;;;3.00;;
17494;SDS011;8864;51.970;4.614;2024-03-25T12:57:01;7.65;;;3.05;;
17494;SDS011;8864;51.970;4.614;2024-03-25T12:59:27;8.45;;;3.58;;
17494;SDS011;8864;51.970;4.614;2024-03-25T13:01:53;8.25;;;3.10;;
17494;SDS011;8864;51.970;4.614;2024-03-25T13:04:19;6.88;;;2.95;;
17494;SDS011;8864;51.970;4.614;2024-03-25T13:06:45;11.07;;;3.17;;
17494;SDS011;8864;51.970;4.614;2024-03-25T13:09:26;9.20;;;3.15;;
17494;SDS011;8864;51.970;4.614;2024-03-25T13:11:54;8.77;;;3.15;;
17494;SDS011;8864;51.970;4.614;2024-03-25T13:14:20;7.78;;;2.88;;
17494;SDS011;8864;51.970;4.614;2024-03-25T13:16:47;8.90;;;2.75;;
17494;SDS011;8864;51.970;4.614;2024-03-25T13:19:13;6.95;;;2.45;;
17494;SDS011;8864;51.970;4.614;2024-03-25T13:21:39;7.78;;;2.67;;
17494;SDS011;8864;51.970;4.614;2024-03-25T13:24:05;10.05;;;2.55;;
17494;SDS011;8864;51.970;4.614;2024-03-25T13:26:32;4.53;;;2.20;;
17494;SDS011;8864;51.970;4.614;2024-03-25T13:28:59;4.45;;;2.80;;
17494;SDS011;8864;51.970;4.614;2024-03-25T13:31:25;6.97;;;2.47;;
17494;SDS011;8864;51.970;4.614;2024-03-25T13:33:52;8.85;;;2.45;;
17494;SDS011;8864;51.970;4.614;2024-03-25T13:36:18;7.57;;;2.60;;
17494;SDS011;8864;51.970;4.614;2024-03-25T13:38:43;5.97;;;2.53;;
17494;SDS011;8864;51.970;4.614;2024-03-25T13:41:13;8.70;;;3.05;;
17494;SDS011;8864;51.970;4.614;2024-03-25T13:44:02;5.50;;;2.30;;
17494;SDS011;8864;51.970;4.614;2024-03-25T13:46:28;6.00;;;2.22;;
17494;SDS011;8864;51.970;4.614;2024-03-25T13:48:54;7.35;;;2.33;;
17494;SDS011;8864;51.970;4.614;2024-03-25T13:51:20;10.70;;;2.63;;
17494;SDS011;8864;51.970;4.614;2024-03-25T13:53:46;8.90;;;2.20;;
17494;SDS011;8864;51.970;4.614;2024-03-25T13:56:12;4.47;;;2.03;;
17494;SDS011;8864;51.970;4.614;2024-03-25T13:58:37;5.57;;;2.33;;
17494;SDS011;8864;51.970;4.614;2024-03-25T14:01:05;7.63;;;2.20;;
17494;SDS011;8864;51.970;4.614;2024-03-25T14:03:31;8.57;;;2.40;;
17494;SDS011;8864;51.970;4.614;2024-03-25T14:05:57;7.05;;;2.00;;
17494;SDS011;8864;51.970;4.614;2024-03-25T14:08:23;9.10;;;1.98;;
17494;SDS011;8864;51.970;4.614;2024-03-25T14:10:56;6.03;;;1.90;;
17494;SDS011;8864;51.970;4.614;2024-03-25T14:13:23;4.20;;;1.80;;
17494;SDS011;8864;51.970;4.614;2024-03-25T14:15:49;7.55;;;2.00;;
17494;SDS011;8864;51.970;4.614;2024-03-25T14:18:16;5.80;;;2.10;;
17494;SDS011;8864;51.970;4.614;2024-03-25T14:20:42;5.28;;;1.67;;
17494;SDS011;8864;51.970;4.614;2024-03-25T14:23:09;9.35;;;2.08;;
17494;SDS011;8864;51.970;4.614;2024-03-25T14:25:35;4.38;;;1.80;;
17494;SDS011;8864;51.970;4.614;2024-03-25T14:28:02;3.75;;;1.52;;
17494;SDS011;8864;51.970;4.614;2024-03-25T14:30:29;4.10;;;1.75;;
17494;SDS011;8864;51.970;4.614;2024-03-25T14:32:55;3.90;;;1.52;;
17494;SDS011;8864;51.970;4.614;2024-03-25T14:35:22;4.55;;;1.60;;
17494;SDS011;8864;51.970;4.614;2024-03-25T14:37:48;3.15;;;1.48;;
17494;SDS011;8864;51.970;4.614;2024-03-25T14:40:14;6.35;;;1.67;;
17494;SDS011;8864;51.970;4.614;2024-03-25T14:42:41;5.88;;;1.50;;
17494;SDS011;8864;51.970;4.614;2024-03-25T14:45:07;4.13;;;1.70;;
17494;SDS011;8864;51.970;4.614;2024-03-25T14:47:33;3.50;;;1.67;;
17494;SDS011;8864;51.970;4.614;2024-03-25T14:49:59;5.00;;;1.30;;
17494;SDS011;8864;51.970;4.614;2024-03-25T14:52:26;4.93;;;1.60;;
17494;SDS011;8864;51.970;4.614;2024-03-25T14:54:52;8.13;;;1.73;;